Terminal Aerodrome Forecast
Issued by NWS

Home | Current Version | Previous Version | Text Only | Print | Product List | Glossary On
Versions: 1 2 3 4 5 6 7 8 9 10 11 12
000
FTUS46 KMTR 250521
TAFSNS
TAF
KSNS 250521Z 2506/2606 VRB04KT P6SM BKN150
     FM251000 12006KT P6SM SCT140 BKN200
     FM251700 10015KT P6SM BKN150
     FM252300 34008KT P6SM FEW200
     FM260400 08007KT P6SM BKN200=

USA.gov is the U.S. government's official web portal to all federal, state and local government web resources and services.